Time;durP1;ratioP1;P1;durP2;ratioP2;P2;SDS_P1;SDS_P2;PMS_P1;PMS_P2;Temp;Humidity;BMP_temperature;BMP_pressure;BME280_temperature;BME280_humidity;BME280_pressure;Samples;Min_cycle;Max_cycle;Signal;HPM_P1;HPM_P2
2023/06/29 04:02:56;;;;;;;6.03;2.03;;;13.80;97.30;;;;;;4978844;28;20484;-73
2023/06/29 04:05:21;;;;;;;1.60;1.50;;;13.80;97.30;;;;;;4985311;28;20425;-74
2023/06/29 04:07:47;;;;;;;2.20;2.00;;;13.90;97.30;;;;;;4972269;28;20183;-74
2023/06/29 04:10:12;;;;;;;2.37;1.53;;;13.90;97.30;;;;;;4988222;28;20217;-74
2023/06/29 04:12:38;;;;;;;9.10;2.83;;;14.00;97.30;;;;;;4970283;28;20186;-73
2023/06/29 04:15:04;;;;;;;4.10;2.77;;;14.00;97.30;;;;;;4971343;28;20198;-73
2023/06/29 04:17:29;;;;;;;2.80;2.07;;;14.00;97.30;;;;;;4971685;28;20253;-74
2023/06/29 04:19:55;;;;;;;2.27;1.83;;;14.00;97.30;;;;;;4971777;28;20433;-73
2023/06/29 04:22:20;;;;;;;3.10;2.80;;;14.10;97.30;;;;;;4971584;28;20261;-73
2023/06/29 04:24:46;;;;;;;1.77;1.70;;;14.10;97.30;;;;;;4981607;28;20566;-74
2023/06/29 04:27:12;;;;;;;2.37;2.17;;;14.10;97.30;;;;;;4970413;28;20669;-74
2023/06/29 04:29:37;;;;;;;3.87;2.60;;;14.10;97.30;;;;;;4971503;28;20202;-73
2023/06/29 04:32:03;;;;;;;2.70;2.50;;;14.20;97.30;;;;;;4969698;28;20218;-73
2023/06/29 04:34:29;;;;;;;2.90;1.90;;;14.20;97.30;;;;;;4970172;28;20210;-73
2023/06/29 04:36:56;;;;;;;1.77;1.67;;;14.20;97.30;;;;;;4970124;28;20182;-73
2023/06/29 04:39:21;;;;;;;2.70;2.10;;;14.30;97.30;;;;;;4984946;28;20182;-73
2023/06/29 04:41:47;;;;;;;2.20;1.80;;;14.40;97.30;;;;;;4971030;28;20450;-73
2023/06/29 04:44:12;;;;;;;2.40;2.20;;;14.40;97.30;;;;;;4971754;28;20282;-73
2023/06/29 04:46:39;;;;;;;5.20;2.43;;;14.50;97.30;;;;;;4971109;28;20186;-73
2023/06/29 04:49:06;;;;;;;4.07;2.10;;;14.50;97.30;;;;;;4971082;28;20199;-73
2023/06/29 04:51:35;;;;;;;4.30;2.50;;;14.50;97.30;;;;;;4969730;28;20453;-72
2023/06/29 04:54:02;;;;;;;2.53;1.93;;;14.60;97.30;;;;;;4973078;28;20426;-73
2023/06/29 04:56:28;;;;;;;1.53;1.43;;;14.60;97.30;;;;;;4969654;28;20433;-73
2023/06/29 04:58:54;;;;;;;2.30;2.10;;;14.70;97.30;;;;;;4970584;28;20421;-73
2023/06/29 05:01:20;;;;;;;8.63;2.60;;;14.70;97.30;;;;;;4970438;28;20248;-73
2023/06/29 05:03:45;;;;;;;2.07;1.90;;;14.80;97.30;;;;;;4969345;28;20528;-72
2023/06/29 05:06:11;;;;;;;3.33;2.03;;;14.80;97.30;;;;;;4969613;28;20205;-73
2023/06/29 05:08:37;;;;;;;1.67;1.57;;;14.90;97.30;;;;;;4973938;28;20253;-73
2023/06/29 05:11:02;;;;;;;8.53;2.07;;;14.90;97.30;;;;;;4969336;28;20670;-73
2023/06/29 05:13:28;;;;;;;1.80;1.70;;;15.00;97.30;;;;;;4969249;28;20277;-73
2023/06/29 05:15:53;;;;;;;2.27;2.07;;;15.00;97.30;;;;;;4970365;28;20186;-73
2023/06/29 05:18:19;;;;;;;3.67;2.77;;;15.10;97.30;;;;;;4969050;28;20213;-73
2023/06/29 05:20:46;;;;;;;1.93;1.80;;;15.20;97.30;;;;;;4970827;28;20671;-73
2023/06/29 05:23:11;;;;;;;6.30;2.53;;;15.20;97.30;;;;;;4962705;28;20225;-73
2023/06/29 05:25:38;;;;;;;3.03;2.83;;;15.30;97.30;;;;;;4970516;28;20425;-73
2023/06/29 05:28:04;;;;;;;2.37;2.17;;;15.30;97.30;;;;;;4968803;28;20195;-73
2023/06/29 05:30:30;;;;;;;1.60;1.50;;;15.40;97.30;;;;;;4968609;28;20474;-73
2023/06/29 05:32:55;;;;;;;3.90;1.83;;;15.50;97.30;;;;;;4970836;28;20815;-72
2023/06/29 05:35:21;;;;;;;2.63;2.07;;;15.50;97.30;;;;;;4970330;28;20294;-73
2023/06/29 05:37:47;;;;;;;10.23;4.43;;;15.60;97.30;;;;;;4969113;28;20190;-72
2023/06/29 05:40:13;;;;;;;1.80;1.70;;;15.70;97.30;;;;;;4969116;28;20704;-73
2023/06/29 05:42:38;;;;;;;4.20;3.43;;;15.70;97.30;;;;;;4969998;28;20417;-73
2023/06/29 05:45:04;;;;;;;1.83;1.73;;;15.80;97.30;;;;;;4968879;28;20243;-73
2023/06/29 05:47:30;;;;;;;2.63;1.87;;;15.90;97.30;;;;;;4970043;28;20693;-73
2023/06/29 05:49:55;;;;;;;11.20;2.50;;;16.00;97.30;;;;;;4968900;28;20498;-72
2023/06/29 05:52:22;;;;;;;1.70;1.60;;;16.00;97.30;;;;;;4959316;28;20226;-73
2023/06/29 05:54:48;;;;;;;1.80;1.70;;;16.10;97.30;;;;;;4968791;28;20437;-72
2023/06/29 05:57:13;;;;;;;5.60;2.60;;;16.20;97.30;;;;;;4960882;28;20208;-72
2023/06/29 05:59:39;;;;;;;1.77;1.67;;;16.20;97.30;;;;;;4968737;28;20327;-73
2023/06/29 06:02:05;;;;;;;2.07;1.80;;;16.30;97.30;;;;;;4968377;28;20230;-72
2023/06/29 06:04:30;;;;;;;1.60;1.40;;;16.30;97.30;;;;;;4968506;28;20209;-72
2023/06/29 06:06:56;;;;;;;6.63;1.43;;;16.40;97.30;;;;;;4969840;28;20530;-73
2023/06/29 06:09:21;;;;;;;1.40;1.30;;;16.50;97.30;;;;;;4969779;28;20214;-73
2023/06/29 06:11:47;;;;;;;1.47;1.37;;;16.60;97.30;;;;;;4968535;28;20698;-73
2023/06/29 06:14:12;;;;;;;3.20;3.00;;;16.70;97.30;;;;;;4969683;28;20245;-73
2023/06/29 06:16:38;;;;;;;2.33;2.13;;;16.80;97.30;;;;;;4968519;28;20193;-73
2023/06/29 06:19:03;;;;;;;2.90;2.10;;;16.90;97.30;;;;;;4969540;28;20201;-73
2023/06/29 06:21:29;;;;;;;1.60;1.50;;;17.00;97.30;;;;;;4969786;28;20210;-73
2023/06/29 06:23:54;;;;;;;1.40;1.30;;;17.00;97.30;;;;;;4968141;28;20186;-73
2023/06/29 06:26:20;;;;;;;1.47;1.37;;;17.10;97.30;;;;;;4968690;28;20191;-73
2023/06/29 06:28:46;;;;;;;2.73;2.00;;;17.20;97.30;;;;;;4968473;28;20186;-73
2023/06/29 06:31:12;;;;;;;1.70;1.60;;;17.30;97.30;;;;;;4977054;28;20202;-73
2023/06/29 06:33:39;;;;;;;2.33;1.70;;;17.40;97.30;;;;;;4969104;28;20187;-73
2023/06/29 06:36:06;;;;;;;2.70;1.70;;;17.50;97.30;;;;;;4969379;28;20513;-73
2023/06/29 06:38:31;;;;;;;6.10;1.53;;;17.70;97.30;;;;;;4969177;28;20460;-73
2023/06/29 06:40:57;;;;;;;1.50;1.40;;;17.80;97.30;;;;;;4968679;28;20449;-73
2023/06/29 06:43:22;;;;;;;2.80;1.77;;;17.90;97.30;;;;;;4972656;28;20182;-75
2023/06/29 06:45:48;;;;;;;2.33;1.67;;;18.00;97.30;;;;;;4973439;28;20186;-74
2023/06/29 06:48:13;;;;;;;1.87;1.77;;;18.10;97.30;;;;;;4971940;28;20189;-73
2023/06/29 06:50:39;;;;;;;1.40;1.30;;;18.10;97.30;;;;;;4980049;28;20257;-73
2023/06/29 06:53:05;;;;;;;2.67;2.20;;;18.30;97.30;;;;;;4971899;28;20623;-74
2023/06/29 06:55:30;;;;;;;1.87;1.10;;;18.40;97.30;;;;;;4972003;28;20186;-74
2023/06/29 06:57:56;;;;;;;1.60;1.50;;;18.50;97.30;;;;;;4971782;28;20229;-74
2023/06/29 07:00:22;;;;;;;1.50;1.40;;;18.60;97.30;;;;;;4980000;28;20187;-73
2023/06/29 07:02:47;;;;;;;1.87;1.30;;;18.80;97.30;;;;;;4971739;28;20237;-74
2023/06/29 07:05:14;;;;;;;2.80;1.40;;;18.90;97.30;;;;;;4973018;28;20421;-73
2023/06/29 07:07:40;;;;;;;1.27;1.20;;;18.90;97.30;;;;;;4971711;28;20190;-73
2023/06/29 07:10:06;;;;;;;5.93;1.97;;;19.10;96.30;;;;;;4971131;28;20560;-74
2023/06/29 07:12:31;;;;;;;2.07;1.93;;;19.20;96.80;;;;;;4972894;28;20186;-75
2023/06/29 07:14:57;;;;;;;4.47;2.00;;;19.30;97.10;;;;;;4987953;28;20430;-74
2023/06/29 07:17:23;;;;;;;1.40;1.30;;;19.40;96.90;;;;;;4973021;28;20185;-74
2023/06/29 07:19:48;;;;;;;1.40;1.33;;;19.50;96.50;;;;;;4983536;28;20186;-73
2023/06/29 07:22:14;;;;;;;1.20;1.10;;;19.60;96.70;;;;;;4971222;28;20229;-74
2023/06/29 07:24:40;;;;;;;2.07;1.93;;;19.80;94.90;;;;;;4972620;28;20189;-75
2023/06/29 07:27:06;;;;;;;4.00;1.77;;;19.80;94.10;;;;;;4971241;28;20573;-75
2023/06/29 07:29:33;;;;;;;1.23;1.03;;;20.00;94.40;;;;;;4972212;28;20469;-73
2023/06/29 07:31:58;;;;;;;1.20;1.10;;;20.10;94.50;;;;;;4971367;28;20202;-74
2023/06/29 07:34:25;;;;;;;2.03;1.70;;;20.10;94.60;;;;;;4972509;28;20414;-75
2023/06/29 07:36:51;;;;;;;1.70;1.60;;;20.20;94.10;;;;;;4972779;28;20226;-75
2023/06/29 07:39:17;;;;;;;1.57;1.23;;;20.30;93.60;;;;;;4972213;28;20422;-74
2023/06/29 07:41:43;;;;;;;1.53;1.43;;;20.50;94.00;;;;;;4972515;28;20442;-75
2023/06/29 07:44:09;;;;;;;1.10;0.90;;;20.60;93.70;;;;;;4972409;28;20193;-74
2023/06/29 07:46:35;;;;;;;2.00;1.50;;;20.70;93.20;;;;;;4971041;28;20225;-71
2023/06/29 07:49:00;;;;;;;1.23;1.13;;;20.80;92.10;;;;;;4972311;28;20485;-73
2023/06/29 07:51:32;;;;;;;2.50;1.67;;;21.00;91.10;;;;;;4970851;28;20755;-74
2023/06/29 07:53:57;;;;;;;1.20;1.07;;;21.10;90.00;;;;;;4971159;28;20185;-73
2023/06/29 07:56:23;;;;;;;1.20;1.10;;;21.20;89.90;;;;;;4970937;28;20421;-74
2023/06/29 07:58:48;;;;;;;1.27;0.90;;;21.30;89.60;;;;;;4970605;28;20189;-72
2023/06/29 08:01:14;;;;;;;1.97;1.57;;;21.40;87.60;;;;;;4971096;28;20265;-73
2023/06/29 08:03:39;;;;;;;1.20;1.10;;;21.50;88.00;;;;;;4972061;28;20245;-74
2023/06/29 08:06:05;;;;;;;5.60;1.27;;;21.60;89.10;;;;;;4970817;28;20193;-73
2023/06/29 08:08:30;;;;;;;2.10;1.33;;;21.70;89.60;;;;;;4970518;28;20484;-74
2023/06/29 08:10:58;;;;;;;1.83;1.63;;;21.80;89.40;;;;;;4986727;28;20625;-74
2023/06/29 08:13:24;;;;;;;1.40;1.30;;;21.90;88.30;;;;;;4970689;28;20193;-74
2023/06/29 08:15:50;;;;;;;4.40;1.87;;;22.00;87.30;;;;;;4971873;28;20414;-72
2023/06/29 08:18:15;;;;;;;1.30;1.27;;;22.10;86.20;;;;;;4972051;28;20676;-73
2023/06/29 08:20:41;;;;;;;1.53;1.43;;;22.20;86.10;;;;;;4970680;28;20214;-69
2023/06/29 08:23:07;;;;;;;1.93;1.00;;;22.30;86.60;;;;;;4970497;28;20190;-72
2023/06/29 08:25:32;;;;;;;1.03;0.93;;;22.40;84.00;;;;;;4971700;28;20193;-71
2023/06/29 08:27:58;;;;;;;6.27;1.67;;;22.50;84.20;;;;;;4971725;28;20182;-73
2023/06/29 08:30:23;;;;;;;1.73;1.53;;;22.60;84.90;;;;;;4971498;28;20210;-75
2023/06/29 08:32:49;;;;;;;2.27;2.00;;;22.70;84.00;;;;;;4970323;28;20287;-72
2023/06/29 08:35:15;;;;;;;1.40;1.30;;;22.80;84.80;;;;;;4977699;28;20647;-73
2023/06/29 08:37:41;;;;;;;1.17;1.07;;;22.90;83.00;;;;;;4969835;28;20233;-72
2023/06/29 08:40:07;;;;;;;2.03;1.40;;;23.00;83.10;;;;;;4969946;28;20492;-71
2023/06/29 08:42:33;;;;;;;1.93;1.20;;;23.10;83.00;;;;;;4970263;28;20462;-72
2023/06/29 08:44:59;;;;;;;2.30;1.40;;;23.20;81.80;;;;;;4970029;28;20464;-73
2023/06/29 08:47:27;;;;;;;1.13;1.03;;;23.40;83.00;;;;;;4970402;28;20808;-71
2023/06/29 08:49:57;;;;;;;3.83;1.53;;;23.50;82.50;;;;;;4969704;28;20234;-72
2023/06/29 08:52:25;;;;;;;1.07;1.00;;;23.80;82.50;;;;;;4969584;28;20441;-72
2023/06/29 08:54:52;;;;;;;1.13;1.10;;;23.90;80.40;;;;;;4971089;28;20940;-72
2023/06/29 08:57:18;;;;;;;1.80;1.07;;;23.90;80.70;;;;;;4969361;28;20520;-68
2023/06/29 08:59:45;;;;;;;1.23;1.17;;;23.90;80.00;;;;;;4970901;28;20418;-72
2023/06/29 09:02:12;;;;;;;3.37;1.87;;;24.00;81.00;;;;;;4970424;28;20512;-72
2023/06/29 09:04:37;;;;;;;0.90;0.90;;;24.00;80.80;;;;;;4970550;28;20426;-70
2023/06/29 09:07:03;;;;;;;1.30;0.90;;;24.00;80.40;;;;;;4969781;28;20429;-72
2023/06/29 09:09:29;;;;;;;1.43;1.33;;;24.10;82.10;;;;;;4970773;28;20221;-70
2023/06/29 09:11:55;;;;;;;1.43;1.33;;;24.10;80.90;;;;;;4970866;28;20480;-72
2023/06/29 09:14:22;;;;;;;1.10;1.00;;;24.20;80.00;;;;;;4969520;28;20469;-72
2023/06/29 09:17:01;;;;;;;7.90;1.23;;;24.20;81.00;;;;;;4969428;28;20189;-71
2023/06/29 09:19:27;;;;;;;4.10;1.23;;;24.30;79.80;;;;;;4969226;28;20945;-69
2023/06/29 09:21:53;;;;;;;4.70;1.90;;;24.40;77.60;;;;;;4970867;28;20532;-69
2023/06/29 09:24:19;;;;;;;2.93;1.33;;;24.50;76.80;;;;;;4970992;28;20508;-70
2023/06/29 09:26:48;;;;;;;1.63;1.57;;;24.60;78.00;;;;;;4970613;28;20724;-71
2023/06/29 09:29:14;;;;;;;1.60;1.50;;;24.60;77.10;;;;;;4970913;28;20473;-72
2023/06/29 09:31:39;;;;;;;0.97;0.90;;;24.70;77.70;;;;;;4969394;28;20442;-70
2023/06/29 09:34:16;;;;;;;17.70;2.20;;;24.70;77.40;;;;;;4970484;28;20678;-72
2023/06/29 09:36:42;;;;;;;2.00;1.60;;;24.80;77.50;;;;;;4970440;28;20236;-71
2023/06/29 09:39:08;;;;;;;1.17;1.10;;;24.80;77.10;;;;;;4969212;28;21088;-69
2023/06/29 09:41:58;;;;;;;4.20;1.40;;;24.90;77.30;;;;;;4970146;28;20817;-70
2023/06/29 09:44:25;;;;;;;1.80;1.30;;;24.90;77.10;;;;;;4969553;28;20433;-72
2023/06/29 09:46:53;;;;;;;0.90;0.90;;;24.90;76.90;;;;;;4970242;28;20906;-72
2023/06/29 09:49:19;;;;;;;1.67;1.60;;;24.90;77.60;;;;;;4970097;28;20605;-72
2023/06/29 09:51:45;;;;;;;6.83;1.93;;;25.00;78.40;;;;;;4970006;28;20465;-72
2023/06/29 09:54:13;;;;;;;1.10;1.07;;;25.10;79.30;;;;;;4977071;28;20453;-71
2023/06/29 09:56:40;;;;;;;3.87;1.57;;;25.20;79.00;;;;;;4970630;28;20428;-69
2023/06/29 09:59:09;;;;;;;1.50;1.40;;;25.30;78.10;;;;;;4970135;28;20430;-71
2023/06/29 10:01:35;;;;;;;1.80;1.70;;;25.40;76.50;;;;;;4968424;28;20481;-71
2023/06/29 10:04:02;;;;;;;1.20;1.10;;;25.50;76.30;;;;;;4968649;28;20521;-72
2023/06/29 10:06:42;;;;;;;2.60;1.47;;;25.50;76.90;;;;;;4970084;28;20425;-72
2023/06/29 10:09:09;;;;;;;3.83;1.70;;;25.50;76.90;;;;;;4970415;28;20465;-71
2023/06/29 10:11:36;;;;;;;2.17;1.93;;;25.60;76.70;;;;;;4969640;28;20524;-70
2023/06/29 10:14:04;;;;;;;2.00;1.30;;;25.60;75.70;;;;;;4970258;28;20448;-72
2023/06/29 10:16:34;;;;;;;6.93;1.30;;;25.60;75.90;;;;;;4970041;28;20902;-72
2023/06/29 10:19:10;;;;;;;1.97;1.83;;;25.60;76.40;;;;;;4971781;28;20429;-70
2023/06/29 10:21:36;;;;;;;1.20;1.10;;;25.70;77.10;;;;;;4972086;28;20448;-69
2023/06/29 10:24:03;;;;;;;1.93;1.77;;;25.80;78.40;;;;;;4971229;28;21071;-70
2023/06/29 10:26:29;;;;;;;2.90;2.00;;;25.80;76.40;;;;;;4968706;28;20468;-70
2023/06/29 10:28:55;;;;;;;2.10;1.73;;;25.90;76.80;;;;;;4972616;28;20755;-69
2023/06/29 10:31:30;;;;;;;5.40;1.43;;;26.00;76.90;;;;;;4970819;28;20212;-70
2023/06/29 10:33:58;;;;;;;1.57;1.47;;;26.10;77.30;;;;;;4972640;28;20556;-69
2023/06/29 10:36:23;;;;;;;1.20;1.10;;;26.30;77.10;;;;;;4972495;28;20448;-70
2023/06/29 10:38:50;;;;;;;2.20;1.60;;;26.30;77.10;;;;;;4973535;28;20926;-71
2023/06/29 10:41:26;;;;;;;1.17;1.07;;;26.40;77.20;;;;;;4969495;28;20218;-71
2023/06/29 10:44:05;;;;;;;1.00;0.90;;;26.50;76.50;;;;;;4971729;28;20417;-69
2023/06/29 10:46:44;;;;;;;1.40;1.30;;;26.50;76.00;;;;;;4963099;28;20720;-71
2023/06/29 10:49:23;;;;;;;1.57;1.20;;;26.60;75.00;;;;;;4970939;28;20511;-70
2023/06/29 10:51:50;;;;;;;2.50;1.30;;;26.60;75.90;;;;;;4969374;28;20476;-71
2023/06/29 10:54:16;;;;;;;3.10;1.70;;;26.70;75.70;;;;;;4953376;28;21015;-69
2023/06/29 10:57:15;;;;;;;1.83;1.50;;;26.80;77.50;;;;;;4970436;28;20425;-70
2023/06/29 10:59:41;;;;;;;1.20;1.10;;;26.80;76.70;;;;;;4962966;28;20761;-68
2023/06/29 11:02:08;;;;;;;1.50;1.40;;;26.90;76.60;;;;;;4970268;28;20720;-70
2023/06/29 11:04:34;;;;;;;3.33;1.97;;;27.00;75.00;;;;;;4969246;28;20198;-69
2023/06/29 11:07:07;;;;;;;2.10;1.67;;;27.10;74.90;;;;;;4970127;28;20795;-70
2023/06/29 11:09:32;;;;;;;1.30;1.20;;;27.10;75.60;;;;;;4972181;28;20711;-71
2023/06/29 11:11:59;;;;;;;2.37;1.53;;;27.10;76.10;;;;;;4971211;28;20446;-70
2023/06/29 11:14:25;;;;;;;1.43;1.33;;;27.10;77.20;;;;;;4973079;28;20261;-71
2023/06/29 11:16:53;;;;;;;1.50;1.40;;;27.20;77.60;;;;;;4972684;28;20517;-71
2023/06/29 11:19:21;;;;;;;1.47;1.10;;;27.30;77.00;;;;;;4971488;28;20186;-71
2023/06/29 11:21:46;;;;;;;1.80;1.50;;;27.30;75.90;;;;;;4972657;28;20448;-71
2023/06/29 11:24:12;;;;;;;1.27;1.27;;;27.30;75.70;;;;;;4972452;28;20430;-69
2023/06/29 11:26:38;;;;;;;1.30;1.20;;;27.30;76.70;;;;;;4970947;28;20193;-70
2023/06/29 11:29:07;;;;;;;3.10;1.50;;;27.40;75.20;;;;;;4970426;28;20741;-68
2023/06/29 11:31:32;;;;;;;3.17;1.30;;;27.50;74.40;;;;;;4972442;28;20206;-69
2023/06/29 11:33:59;;;;;;;1.20;1.10;;;27.70;74.40;;;;;;4972593;28;20699;-68
2023/06/29 11:36:29;;;;;;;1.83;1.60;;;27.70;73.40;;;;;;4971009;28;20269;-71
2023/06/29 11:39:07;;;;;;;1.57;1.37;;;27.80;72.80;;;;;;4972465;28;20457;-71
2023/06/29 11:41:33;;;;;;;8.20;1.63;;;27.80;73.50;;;;;;4963510;28;20503;-69
2023/06/29 11:44:00;;;;;;;1.47;1.23;;;27.90;73.50;;;;;;4971398;28;20512;-71
2023/06/29 11:46:26;;;;;;;1.40;1.30;;;28.00;74.10;;;;;;4971414;28;20403;-69
2023/06/29 11:48:55;;;;;;;2.53;1.63;;;28.00;74.40;;;;;;4972335;28;20418;-69
2023/06/29 11:51:25;;;;;;;1.50;1.40;;;28.10;72.90;;;;;;4971841;28;20442;-70
2023/06/29 11:53:54;;;;;;;1.77;0.90;;;28.20;73.20;;;;;;4971029;28;20430;-70
2023/06/29 11:56:28;;;;;;;1.47;1.37;;;28.20;73.50;;;;;;4972402;28;20422;-70
2023/06/29 11:58:54;;;;;;;1.50;1.10;;;28.30;73.70;;;;;;4968980;28;20528;-70
2023/06/29 12:01:20;;;;;;;1.00;1.00;;;28.30;73.30;;;;;;4971726;28;20513;-70
2023/06/29 12:03:47;;;;;;;2.10;1.60;;;28.40;72.90;;;;;;4971984;28;20186;-69
2023/06/29 12:06:12;;;;;;;1.40;1.30;;;28.40;72.00;;;;;;4970854;28;20647;-70
2023/06/29 12:08:38;;;;;;;1.43;1.30;;;28.50;73.70;;;;;;4971977;28;20492;-72
2023/06/29 12:11:04;;;;;;;1.10;1.00;;;28.70;74.40;;;;;;4971823;28;20233;-70
2023/06/29 12:13:29;;;;;;;1.17;1.13;;;28.80;73.70;;;;;;4971849;28;20796;-68
2023/06/29 12:16:02;;;;;;;1.40;1.30;;;28.80;71.20;;;;;;4970520;28;20673;-70
2023/06/29 12:18:28;;;;;;;1.53;1.20;;;28.90;71.80;;;;;;4970552;28;20281;-73
2023/06/29 12:20:54;;;;;;;1.73;1.63;;;29.00;71.00;;;;;;4971746;28;20549;-69
2023/06/29 12:23:21;;;;;;;4.20;1.40;;;28.90;70.70;;;;;;4970244;28;20631;-67
2023/06/29 12:25:49;;;;;;;1.00;0.90;;;29.00;71.90;;;;;;4971446;28;20229;-70
2023/06/29 12:28:15;;;;;;;1.43;1.40;;;29.00;70.40;;;;;;4971444;28;20521;-71
2023/06/29 12:30:41;;;;;;;1.37;1.27;;;29.10;71.10;;;;;;4971623;28;20478;-66
2023/06/29 12:33:09;;;;;;;6.23;1.83;;;29.10;70.20;;;;;;4969916;28;20186;-69
2023/06/29 12:35:35;;;;;;;1.10;1.07;;;29.20;73.50;;;;;;4971340;28;20466;-70
2023/06/29 12:38:00;;;;;;;1.23;1.07;;;29.20;70.80;;;;;;4969444;28;20458;-70
2023/06/29 12:40:26;;;;;;;1.20;1.20;;;29.30;71.00;;;;;;4970143;28;20230;-68
2023/06/29 12:42:51;;;;;;;1.53;1.43;;;29.30;71.10;;;;;;4970652;28;20454;-68
2023/06/29 12:45:17;;;;;;;1.83;1.60;;;29.40;70.40;;;;;;4970623;28;20205;-69
2023/06/29 12:47:43;;;;;;;1.97;1.40;;;29.50;70.80;;;;;;4970257;28;20564;-69
2023/06/29 12:50:10;;;;;;;5.20;1.50;;;29.60;70.90;;;;;;4970251;28;20483;-70
2023/06/29 12:52:35;;;;;;;1.10;1.00;;;29.60;72.00;;;;;;4972742;28;20183;-70
2023/06/29 12:55:01;;;;;;;2.13;1.80;;;29.70;71.00;;;;;;4970784;28;20426;-69
2023/06/29 12:57:28;;;;;;;1.43;1.30;;;29.80;70.40;;;;;;4970413;28;20222;-68
2023/06/29 12:59:55;;;;;;;2.33;2.13;;;30.00;71.70;;;;;;4970262;28;20229;-69
2023/06/29 13:02:21;;;;;;;1.17;1.10;;;30.00;69.60;;;;;;4965923;28;20512;-67
2023/06/29 13:04:47;;;;;;;2.10;1.43;;;30.20;71.60;;;;;;4970464;28;20417;-69
2023/06/29 13:07:14;;;;;;;1.80;1.73;;;30.20;68.60;;;;;;4964963;28;20476;-71
2023/06/29 13:09:42;;;;;;;1.20;1.03;;;30.30;68.70;;;;;;4969461;28;20691;-70
2023/06/29 13:12:07;;;;;;;1.13;1.10;;;30.20;70.00;;;;;;4970654;28;20949;-68
2023/06/29 13:14:33;;;;;;;2.67;1.40;;;30.20;67.00;;;;;;4969341;28;20437;-72
2023/06/29 13:16:59;;;;;;;1.13;1.03;;;30.20;66.10;;;;;;4970399;28;20196;-67
2023/06/29 13:19:26;;;;;;;5.30;1.63;;;30.10;67.30;;;;;;4968644;28;20182;-69
2023/06/29 13:21:53;;;;;;;2.20;1.60;;;30.10;68.00;;;;;;4968929;28;20635;-69
2023/06/29 13:24:18;;;;;;;1.33;1.23;;;30.30;69.70;;;;;;4969609;28;20492;-69
2023/06/29 13:26:45;;;;;;;1.10;1.00;;;30.50;67.30;;;;;;4969474;28;20525;-70
2023/06/29 13:29:10;;;;;;;6.63;1.27;;;30.40;67.40;;;;;;4967277;28;20730;-69
2023/06/29 13:31:36;;;;;;;1.87;1.40;;;30.30;68.10;;;;;;4968587;28;20588;-70
2023/06/29 13:34:02;;;;;;;1.50;1.40;;;30.10;68.40;;;;;;4970189;28;20288;-70
2023/06/29 13:36:28;;;;;;;1.57;1.47;;;29.90;68.50;;;;;;4968869;28;20434;-72
2023/06/29 13:38:53;;;;;;;2.10;1.53;;;29.90;69.70;;;;;;4969057;28;20418;-71
2023/06/29 13:41:32;;;;;;;1.27;1.17;;;29.90;68.80;;;;;;4969329;28;20221;-71
2023/06/29 13:43:58;;;;;;;1.30;1.20;;;29.80;69.20;;;;;;4970316;28;20358;-72
2023/06/29 13:46:23;;;;;;;1.60;1.50;;;29.80;69.30;;;;;;4968861;28;21041;-71
2023/06/29 13:48:48;;;;;;;2.00;1.20;;;29.80;69.60;;;;;;4968922;28;20187;-70
2023/06/29 13:51:15;;;;;;;1.50;1.20;;;29.80;70.00;;;;;;4969999;28;20223;-69
2023/06/29 13:53:40;;;;;;;1.33;1.23;;;29.80;68.30;;;;;;4969760;28;20186;-69
2023/06/29 13:56:06;;;;;;;9.03;1.53;;;29.70;67.60;;;;;;4968779;28;20421;-69
2023/06/29 13:58:31;;;;;;;1.33;1.23;;;29.80;69.50;;;;;;4969359;28;20256;-69
2023/06/29 14:00:57;;;;;;;1.53;1.43;;;30.00;70.30;;;;;;4969696;28;20226;-70
2023/06/29 14:03:22;;;;;;;2.53;1.37;;;30.30;68.70;;;;;;4968295;28;20182;-71
2023/06/29 14:05:48;;;;;;;1.53;1.13;;;30.40;69.80;;;;;;4968515;28;20643;-72
2023/06/29 14:08:13;;;;;;;2.30;1.80;;;30.60;69.80;;;;;;4968205;28;20277;-71
2023/06/29 14:10:39;;;;;;;1.10;1.00;;;30.60;68.90;;;;;;4968430;28;20316;-71
2023/06/29 14:13:04;;;;;;;1.50;1.43;;;30.60;67.70;;;;;;4984342;28;20216;-71
2023/06/29 14:15:31;;;;;;;1.30;1.20;;;30.50;68.50;;;;;;4969916;28;20555;-71
2023/06/29 14:17:56;;;;;;;4.50;1.67;;;30.30;68.50;;;;;;4969586;28;20189;-71
2023/06/29 14:20:22;;;;;;;1.27;0.97;;;30.20;69.10;;;;;;4968037;28;20445;-72
2023/06/29 14:22:47;;;;;;;1.27;1.23;;;30.00;69.60;;;;;;4968792;28;20217;-71
2023/06/29 14:25:13;;;;;;;1.43;1.33;;;30.00;70.10;;;;;;4968423;28;20217;-70
2023/06/29 14:27:38;;;;;;;1.53;1.37;;;30.10;70.30;;;;;;4969261;28;20186;-71
2023/06/29 14:30:04;;;;;;;2.17;1.73;;;30.20;69.90;;;;;;4959977;28;20413;-69
2023/06/29 14:32:30;;;;;;;1.43;1.20;;;30.40;69.10;;;;;;4968336;28;20195;-71
2023/06/29 14:34:55;;;;;;;1.47;1.37;;;30.60;69.10;;;;;;4969578;28;20414;-70
2023/06/29 14:37:21;;;;;;;1.57;1.47;;;30.80;66.30;;;;;;4968222;28;20273;-70
2023/06/29 14:39:46;;;;;;;1.27;1.00;;;31.00;67.40;;;;;;4968078;28;20190;-71
2023/06/29 14:42:12;;;;;;;2.20;2.07;;;31.20;67.20;;;;;;4967862;28;20198;-70
2023/06/29 14:44:37;;;;;;;1.33;1.23;;;31.20;67.20;;;;;;4969544;28;20204;-70
2023/06/29 14:47:03;;;;;;;1.73;1.30;;;31.30;65.20;;;;;;4968438;28;20189;-70
2023/06/29 14:49:29;;;;;;;2.20;2.03;;;31.10;65.40;;;;;;4961835;28;20278;-70
2023/06/29 14:51:54;;;;;;;1.40;1.30;;;31.00;66.90;;;;;;4968978;28;20207;-70
2023/06/29 14:54:20;;;;;;;1.70;1.60;;;30.80;66.80;;;;;;4968661;28;20726;-69
2023/06/29 14:56:46;;;;;;;6.03;1.83;;;30.60;66.60;;;;;;4967558;28;20261;-70
2023/06/29 14:59:11;;;;;;;1.50;1.37;;;30.40;67.20;;;;;;4968436;28;20516;-70
2023/06/29 15:01:37;;;;;;;6.33;1.33;;;30.20;66.40;;;;;;4959152;28;20248;-70
2023/06/29 15:04:03;;;;;;;1.83;1.67;;;30.10;67.40;;;;;;4966154;28;20563;-72
2023/06/29 15:06:29;;;;;;;1.30;1.20;;;29.90;67.20;;;;;;4963387;28;20190;-72
2023/06/29 15:08:54;;;;;;;3.30;1.70;;;29.70;67.40;;;;;;4971701;28;20433;-72
2023/06/29 15:11:20;;;;;;;1.50;1.40;;;29.50;68.60;;;;;;4970838;28;20225;-71
2023/06/29 15:13:46;;;;;;;2.10;1.73;;;29.40;70.10;;;;;;4970088;28;20261;-71
2023/06/29 15:16:11;;;;;;;1.67;1.57;;;29.40;69.50;;;;;;4970211;28;20190;-72
2023/06/29 15:18:37;;;;;;;1.70;1.60;;;29.40;68.90;;;;;;4972275;28;20182;-72
2023/06/29 15:21:03;;;;;;;8.23;3.23;;;29.40;70.10;;;;;;4972067;28;20229;-73
2023/06/29 15:23:29;;;;;;;1.53;1.43;;;29.50;68.90;;;;;;4968571;28;20297;-73
2023/06/29 15:25:54;;;;;;;3.63;1.30;;;29.50;68.50;;;;;;4969455;28;20506;-72
2023/06/29 15:28:20;;;;;;;1.03;0.93;;;29.50;69.30;;;;;;4971928;28;20183;-73
2023/06/29 15:30:45;;;;;;;6.53;1.93;;;29.40;69.20;;;;;;4970431;28;20210;-72
2023/06/29 15:33:11;;;;;;;1.10;1.10;;;29.30;69.10;;;;;;4972424;28;20221;-72
2023/06/29 15:35:36;;;;;;;1.43;1.40;;;29.10;69.80;;;;;;4971371;28;20725;-73
2023/06/29 15:38:02;;;;;;;1.23;1.13;;;29.10;69.80;;;;;;4971949;28;20175;-72
2023/06/29 15:40:27;;;;;;;1.67;1.50;;;29.00;69.60;;;;;;4970187;28;20198;-72
2023/06/29 15:42:53;;;;;;;2.70;1.47;;;28.90;70.00;;;;;;4970450;28;20767;-73
2023/06/29 15:45:19;;;;;;;1.90;1.80;;;28.90;70.50;;;;;;4969025;28;20178;-74
2023/06/29 15:47:45;;;;;;;1.13;1.00;;;28.80;70.60;;;;;;4972158;28;20257;-74
2023/06/29 15:50:10;;;;;;;1.70;1.60;;;28.70;70.10;;;;;;4970228;28;20202;-75
2023/06/29 15:52:36;;;;;;;1.90;1.30;;;28.60;70.30;;;;;;4965760;28;20856;-74
2023/06/29 15:55:02;;;;;;;1.73;1.47;;;28.50;70.30;;;;;;4960807;28;20186;-73
2023/06/29 15:57:28;;;;;;;4.23;1.43;;;28.40;70.40;;;;;;4969773;28;20269;-72
2023/06/29 15:59:54;;;;;;;1.67;1.60;;;28.30;70.50;;;;;;4971809;28;20655;-74
2023/06/29 16:02:19;;;;;;;1.60;1.50;;;28.30;71.00;;;;;;4963790;28;20219;-73
2023/06/29 16:04:45;;;;;;;2.87;1.27;;;28.20;70.70;;;;;;4970001;28;20198;-73
2023/06/29 16:07:10;;;;;;;2.97;2.00;;;28.20;71.20;;;;;;4967506;28;20640;-73
2023/06/29 16:09:37;;;;;;;1.50;1.40;;;28.10;70.90;;;;;;4969275;28;20206;-73
2023/06/29 16:12:04;;;;;;;1.27;1.17;;;28.10;71.60;;;;;;4971182;28;20195;-74
2023/06/29 16:14:29;;;;;;;2.37;1.77;;;28.10;71.20;;;;;;4968793;28;20511;-73
2023/06/29 16:16:55;;;;;;;1.60;1.50;;;28.10;70.70;;;;;;4970027;28;20871;-73
2023/06/29 16:19:20;;;;;;;3.40;1.40;;;28.10;70.60;;;;;;4969891;28;20186;-73
2023/06/29 16:21:46;;;;;;;2.27;1.77;;;28.00;70.70;;;;;;4969569;28;20209;-73
2023/06/29 16:24:12;;;;;;;1.40;1.33;;;28.00;71.10;;;;;;4970882;28;20190;-73
2023/06/29 16:26:37;;;;;;;2.97;1.93;;;28.00;71.60;;;;;;4970168;28;20897;-73
2023/06/29 16:29:03;;;;;;;1.30;1.20;;;28.00;72.00;;;;;;4969329;28;20182;-73
2023/06/29 16:31:29;;;;;;;3.33;1.87;;;27.90;71.50;;;;;;4970851;28;20582;-73
2023/06/29 16:33:54;;;;;;;1.83;1.73;;;27.90;71.50;;;;;;4971073;28;20745;-73
2023/06/29 16:36:20;;;;;;;1.03;0.93;;;27.90;71.30;;;;;;4970951;28;20189;-73
2023/06/29 16:38:46;;;;;;;2.93;1.40;;;27.90;71.70;;;;;;4970901;28;20178;-74
2023/06/29 16:41:12;;;;;;;2.30;1.40;;;27.90;72.00;;;;;;4970430;28;20206;-73
2023/06/29 16:43:38;;;;;;;1.10;1.00;;;27.80;72.20;;;;;;4971030;28;20429;-73